createdAt,value
2022-12-31T00:00:11.916Z,100333.94
2022-12-31T00:02:39.326Z,100311.22
2022-12-31T00:05:07.568Z,100322.78
2022-12-31T00:10:03.944Z,100345.53
2022-12-31T00:12:30.623Z,100337.59
2022-12-31T00:14:57.316Z,100340.19
2022-12-31T00:17:23.984Z,100340.31
2022-12-31T00:19:50.785Z,100349.97
2022-12-31T00:22:17.438Z,100334.84
2022-12-31T00:24:44.162Z,100326.28
2022-12-31T00:27:10.808Z,100345.25
2022-12-31T00:29:37.658Z,100306.69
2022-12-31T00:32:05.458Z,100334.50
2022-12-31T00:34:32.319Z,100326.00
2022-12-31T00:36:59.017Z,100334.91
2022-12-31T00:39:25.836Z,100353.75
2022-12-31T00:41:52.506Z,100349.06
2022-12-31T00:44:19.345Z,100361.19
2022-12-31T00:46:46.147Z,100370.66
2022-12-31T00:49:12.963Z,100378.00
2022-12-31T00:51:39.833Z,100374.72
2022-12-31T00:54:06.632Z,100380.28
2022-12-31T00:56:33.284Z,100380.44
2022-12-31T00:59:00.523Z,100374.59
2022-12-31T01:01:34.438Z,100362.63
2022-12-31T01:04:20.571Z,100365.34
2022-12-31T01:06:47.588Z,100373.25
2022-12-31T01:09:16.152Z,100370.25
2022-12-31T01:11:43.307Z,100372.56
2022-12-31T01:14:09.852Z,100381.56
2022-12-31T01:16:42.022Z,100381.66
2022-12-31T01:19:13.458Z,100388.59
2022-12-31T01:21:42.769Z,100396.28
2022-12-31T01:24:11.492Z,100381.50
2022-12-31T01:26:39.302Z,100399.53
2022-12-31T01:29:07.819Z,100422.06
2022-12-31T01:31:35.121Z,100418.31
2022-12-31T01:34:02.479Z,100423.88
2022-12-31T01:36:32.170Z,100415.72
2022-12-31T01:39:01.046Z,100422.69
2022-12-31T01:41:35.744Z,100423.66
2022-12-31T01:44:11.545Z,100428.16
2022-12-31T01:46:47.698Z,100425.06
2022-12-31T01:49:28.521Z,100416.38
2022-12-31T01:52:02.651Z,100416.50
2022-12-31T01:54:33.629Z,100420.28
2022-12-31T01:57:01.383Z,100414.03
2022-12-31T01:59:30.360Z,100416.19
2022-12-31T02:01:57.550Z,100415.69
2022-12-31T02:04:26.482Z,100405.47
2022-12-31T02:07:06.913Z,100403.19
2022-12-31T02:09:36.384Z,100404.13
2022-12-31T02:12:03.151Z,100402.47
2022-12-31T02:14:50.481Z,100409.31
2022-12-31T02:17:47.735Z,100406.28
2022-12-31T02:20:42.167Z,100392.84
2022-12-31T02:23:51.581Z,100410.03
2022-12-31T02:26:26.474Z,100404.03
2022-12-31T02:29:11.803Z,100410.41
2022-12-31T02:31:57.863Z,100386.78
2022-12-31T02:35:19.453Z,100397.88
2022-12-31T02:37:51.189Z,100405.84
2022-12-31T02:40:21.986Z,100402.00
2022-12-31T02:42:54.866Z,100397.63
2022-12-31T02:45:32.151Z,100396.47
2022-12-31T02:48:39.336Z,100383.66
2022-12-31T02:51:38.594Z,100391.91
2022-12-31T02:54:23.503Z,100389.16
2022-12-31T02:57:11.992Z,100390.66
2022-12-31T03:00:13.919Z,100383.25
2022-12-31T03:02:45.380Z,100373.19
2022-12-31T03:05:15.593Z,100377.31
2022-12-31T03:07:43.733Z,100384.78
2022-12-31T03:10:10.830Z,100382.50
2022-12-31T03:12:48.755Z,100376.69
2022-12-31T03:15:26.540Z,100386.00
2022-12-31T03:18:12.644Z,100388.06
2022-12-31T03:21:12.349Z,100401.06
2022-12-31T03:23:50.055Z,100392.88
2022-12-31T03:26:16.849Z,100382.63
2022-12-31T03:28:47.852Z,100377.41
2022-12-31T03:31:16.311Z,100383.88
2022-12-31T03:33:43.150Z,100376.75
2022-12-31T03:36:14.679Z,100368.56
2022-12-31T03:38:41.749Z,100363.75
2022-12-31T03:41:11.193Z,100345.28
2022-12-31T03:43:38.502Z,100349.53
2022-12-31T03:46:05.436Z,100353.66
2022-12-31T03:48:32.194Z,100346.44
2022-12-31T03:50:58.816Z,100350.28
2022-12-31T03:53:25.575Z,100327.84
2022-12-31T03:55:53.986Z,100342.22
2022-12-31T03:58:21.952Z,100342.91
2022-12-31T04:00:49.561Z,100354.59
2022-12-31T04:03:16.461Z,100357.81
2022-12-31T04:05:43.195Z,100353.28
2022-12-31T04:08:10.030Z,100358.00
2022-12-31T04:10:36.731Z,100350.91
2022-12-31T04:13:04.804Z,100351.25
2022-12-31T04:15:32.037Z,100360.47
2022-12-31T04:17:58.929Z,100354.25
2022-12-31T04:20:25.977Z,100341.22
2022-12-31T04:22:52.713Z,100333.84
2022-12-31T04:25:19.436Z,100327.31
2022-12-31T04:27:46.228Z,100310.50
2022-12-31T04:30:14.000Z,100318.84
2022-12-31T04:32:41.255Z,100302.34
2022-12-31T04:35:09.092Z,100305.53
2022-12-31T04:37:35.864Z,100311.06
2022-12-31T04:40:06.309Z,100297.75
2022-12-31T04:42:34.856Z,100301.78
2022-12-31T04:45:01.543Z,100300.72
2022-12-31T04:47:28.267Z,100310.75
2022-12-31T04:49:54.965Z,100295.78
2022-12-31T04:52:21.967Z,100315.47
2022-12-31T04:54:48.642Z,100308.13
2022-12-31T04:57:15.488Z,100311.66
2022-12-31T04:59:42.169Z,100309.09
2022-12-31T05:02:09.317Z,100313.53
2022-12-31T05:04:36.094Z,100311.13
2022-12-31T05:07:02.906Z,100308.91
2022-12-31T05:09:29.738Z,100303.69
2022-12-31T05:11:56.839Z,100300.19
2022-12-31T05:14:23.551Z,100286.59
2022-12-31T05:16:50.513Z,100283.19
2022-12-31T05:19:17.211Z,100277.47
2022-12-31T05:21:44.055Z,100280.84
2022-12-31T05:24:10.722Z,100273.00
2022-12-31T05:26:37.437Z,100252.38
2022-12-31T05:29:04.169Z,100269.91
2022-12-31T05:31:30.839Z,100258.97
2022-12-31T05:33:57.594Z,100249.75
2022-12-31T05:36:24.341Z,100259.97
2022-12-31T05:38:51.053Z,100263.75
2022-12-31T05:41:17.762Z,100254.25
2022-12-31T05:43:44.481Z,100241.88
2022-12-31T05:46:11.303Z,100248.50
2022-12-31T05:48:38.021Z,100245.38
2022-12-31T05:51:05.060Z,100258.00
2022-12-31T05:53:31.796Z,100251.13
2022-12-31T05:55:58.521Z,100250.31
2022-12-31T05:58:25.714Z,100242.19
2022-12-31T06:00:52.800Z,100239.97
2022-12-31T06:03:19.638Z,100243.75
2022-12-31T06:05:46.424Z,100244.78
2022-12-31T06:08:13.310Z,100236.88
2022-12-31T06:10:40.507Z,100234.22
2022-12-31T06:13:07.798Z,100228.91
2022-12-31T06:15:40.291Z,100213.19
2022-12-31T06:18:07.384Z,100231.38
2022-12-31T06:20:37.711Z,100231.59
2022-12-31T06:23:05.523Z,100236.44
2022-12-31T06:25:32.428Z,100216.16
2022-12-31T06:27:59.123Z,100222.31
2022-12-31T06:30:25.887Z,100219.50
2022-12-31T06:32:52.594Z,100228.25
2022-12-31T06:35:19.228Z,100220.81
2022-12-31T06:37:45.945Z,100223.06
2022-12-31T06:40:13.390Z,100229.47
2022-12-31T06:42:42.121Z,100234.72
2022-12-31T06:45:09.282Z,100223.13
2022-12-31T06:47:36.073Z,100217.50
2022-12-31T06:50:02.985Z,100191.38
2022-12-31T06:52:29.748Z,100206.47
2022-12-31T06:54:56.839Z,100190.56
2022-12-31T06:57:23.933Z,100201.16
2022-12-31T06:59:51.283Z,100212.47
2022-12-31T07:02:58.318Z,100214.44
2022-12-31T07:05:44.572Z,100200.47
2022-12-31T07:08:33.968Z,100210.81
2022-12-31T07:11:14.284Z,100205.50
2022-12-31T07:14:35.195Z,100209.81
2022-12-31T07:17:32.933Z,100204.78
2022-12-31T07:20:11.831Z,100202.53
2022-12-31T07:22:41.399Z,100207.00
2022-12-31T07:25:14.836Z,100204.91
2022-12-31T07:27:59.387Z,100197.81
2022-12-31T07:30:42.715Z,100211.25
2022-12-31T07:33:15.151Z,100232.66
2022-12-31T07:36:04.394Z,100238.00
2022-12-31T07:38:50.093Z,100229.31
2022-12-31T07:42:22.603Z,100237.00
2022-12-31T07:45:02.423Z,100231.38
2022-12-31T07:47:30.219Z,100233.75
2022-12-31T07:49:57.927Z,100242.88
2022-12-31T07:52:25.435Z,100238.53
2022-12-31T07:54:52.245Z,100241.34
2022-12-31T07:57:21.128Z,100248.88
2022-12-31T08:00:20.465Z,100248.41
2022-12-31T08:03:42.798Z,100249.50
2022-12-31T08:06:27.384Z,100238.25
2022-12-31T08:09:04.308Z,100248.88
2022-12-31T08:11:38.362Z,100254.38
2022-12-31T08:14:13.887Z,100254.19
2022-12-31T08:16:41.628Z,100254.72
2022-12-31T08:19:31.750Z,100250.16
2022-12-31T08:22:25.564Z,100279.53
2022-12-31T08:25:25.940Z,100268.25
2022-12-31T08:28:27.088Z,100274.09
2022-12-31T08:31:23.873Z,100282.94
2022-12-31T08:34:10.628Z,100274.38
2022-12-31T08:37:36.697Z,100266.81
2022-12-31T08:40:31.508Z,100283.34
2022-12-31T08:43:03.748Z,100269.91
2022-12-31T08:45:41.627Z,100274.84
2022-12-31T08:48:26.942Z,100284.06
2022-12-31T08:50:54.714Z,100274.81
2022-12-31T08:53:22.359Z,100274.38
2022-12-31T08:55:57.679Z,100282.94
2022-12-31T08:59:12.220Z,100284.47
2022-12-31T09:02:18.852Z,100282.53
2022-12-31T09:05:23.916Z,100286.03
2022-12-31T09:08:08.423Z,100278.88
2022-12-31T09:10:46.581Z,100264.16
2022-12-31T09:13:40.336Z,100275.19
2022-12-31T09:16:29.236Z,100279.28
2022-12-31T09:18:56.025Z,100265.63
2022-12-31T09:21:22.910Z,100284.22
2022-12-31T09:23:49.967Z,100277.13
2022-12-31T09:26:40.718Z,100286.19
2022-12-31T09:29:23.489Z,100310.78
2022-12-31T09:32:05.892Z,100279.41
2022-12-31T09:34:56.665Z,100284.41
2022-12-31T09:37:36.782Z,100273.16
2022-12-31T09:40:44.310Z,100301.00
2022-12-31T09:44:01.215Z,100281.06
2022-12-31T09:47:15.395Z,100294.56
2022-12-31T09:50:17.983Z,100307.84
2022-12-31T09:53:26.529Z,100311.66
2022-12-31T09:56:03.041Z,100333.88
2022-12-31T09:58:52.181Z,100335.69
2022-12-31T10:01:30.971Z,100343.81
2022-12-31T10:04:52.236Z,100330.63
2022-12-31T10:07:48.779Z,100341.63
2022-12-31T10:10:23.152Z,100366.91
2022-12-31T10:13:11.595Z,100356.78
2022-12-31T10:16:02.823Z,100365.50
2022-12-31T10:19:06.591Z,100384.13
2022-12-31T10:22:14.191Z,100384.53
2022-12-31T10:25:01.059Z,100400.66
2022-12-31T10:28:08.587Z,100398.59
2022-12-31T10:30:44.953Z,100403.38
2022-12-31T10:33:21.857Z,100405.63
2022-12-31T10:36:02.546Z,100406.50
2022-12-31T10:39:00.231Z,100410.06
2022-12-31T10:41:54.848Z,100420.25
2022-12-31T10:44:55.297Z,100414.31
2022-12-31T10:47:32.683Z,100414.31
2022-12-31T10:50:36.062Z,100417.69
2022-12-31T10:54:06.331Z,100426.38
2022-12-31T10:57:09.717Z,100426.06
2022-12-31T11:00:13.852Z,100425.56
2022-12-31T11:02:40.634Z,100418.59
2022-12-31T11:05:34.901Z,100409.97
2022-12-31T11:08:48.185Z,100408.91
2022-12-31T11:11:44.996Z,100397.06
2022-12-31T11:14:45.057Z,100388.03
2022-12-31T11:17:47.179Z,100375.13
2022-12-31T11:20:41.755Z,100367.66
2022-12-31T11:23:34.737Z,100378.75
2022-12-31T11:26:35.400Z,100369.78
2022-12-31T11:29:32.863Z,100371.25
2022-12-31T11:32:06.443Z,100369.34
2022-12-31T11:34:48.402Z,100360.66
2022-12-31T11:37:47.420Z,100355.81
2022-12-31T11:41:04.231Z,100357.72
2022-12-31T11:44:21.662Z,100361.72
2022-12-31T11:47:22.175Z,100366.44
2022-12-31T11:50:12.963Z,100357.50
2022-12-31T11:53:25.749Z,100360.09
2022-12-31T11:56:10.535Z,100354.31
2022-12-31T11:58:37.417Z,100357.06
2022-12-31T12:01:16.446Z,100349.25
2022-12-31T12:03:44.091Z,100337.38
2022-12-31T12:06:25.874Z,100325.75
2022-12-31T12:08:56.727Z,100341.00
2022-12-31T12:11:34.144Z,100349.84
2022-12-31T12:14:00.945Z,100341.03
2022-12-31T12:16:28.603Z,100352.75
2022-12-31T12:19:14.891Z,100330.97
2022-12-31T12:21:47.749Z,100340.44
2022-12-31T12:24:26.171Z,100350.41
2022-12-31T12:26:54.452Z,100347.13
2022-12-31T12:29:36.603Z,100340.72
2022-12-31T12:32:25.766Z,100353.53
2022-12-31T12:34:53.520Z,100332.75
2022-12-31T12:37:35.322Z,100356.88
2022-12-31T12:40:06.848Z,100356.63
2022-12-31T12:42:33.568Z,100353.97
2022-12-31T12:45:14.681Z,100347.59
2022-12-31T12:47:44.177Z,100341.03
2022-12-31T12:50:17.851Z,100354.97
2022-12-31T12:52:48.535Z,100350.78
2022-12-31T12:55:33.330Z,100346.50
2022-12-31T12:58:45.328Z,100357.34
2022-12-31T13:01:43.297Z,100330.41
2022-12-31T13:04:38.496Z,100367.19
2022-12-31T13:07:27.908Z,100341.56
2022-12-31T13:10:51.216Z,100367.25
2022-12-31T13:13:48.042Z,100364.97
2022-12-31T13:16:42.423Z,100367.50
2022-12-31T13:19:24.201Z,100370.44
2022-12-31T13:22:01.473Z,100386.34
2022-12-31T13:25:15.488Z,100401.13
2022-12-31T13:27:50.276Z,100409.13
2022-12-31T13:30:40.400Z,100397.63
2022-12-31T13:33:25.509Z,100374.69
2022-12-31T13:35:58.704Z,100426.91
2022-12-31T13:38:42.146Z,100426.25
2022-12-31T13:41:17.831Z,100429.81
2022-12-31T13:44:00.674Z,100413.63
2022-12-31T13:46:52.389Z,100438.22
2022-12-31T13:49:36.044Z,100441.47
2022-12-31T13:52:27.509Z,100443.31
2022-12-31T13:55:05.909Z,100447.25
2022-12-31T13:58:01.960Z,100444.28
2022-12-31T14:00:50.452Z,100432.94
2022-12-31T14:03:45.997Z,100444.78
2022-12-31T14:06:58.771Z,100458.34
2022-12-31T14:09:28.699Z,100460.44
2022-12-31T14:12:22.135Z,100474.16
2022-12-31T14:15:21.042Z,100482.97
2022-12-31T14:17:50.887Z,100483.06
2022-12-31T14:20:45.419Z,100465.66
2022-12-31T14:23:24.064Z,100471.59
2022-12-31T14:26:18.260Z,100485.66
2022-12-31T14:28:54.796Z,100491.94
2022-12-31T14:31:51.625Z,100494.53
2022-12-31T14:34:53.512Z,100497.50
2022-12-31T14:37:56.109Z,100503.59
2022-12-31T14:40:36.960Z,100486.94
2022-12-31T14:43:24.935Z,100482.16
2022-12-31T14:46:37.667Z,100500.53
2022-12-31T14:49:32.241Z,100511.84
2022-12-31T14:52:36.225Z,100512.75
2022-12-31T14:55:08.836Z,100486.72
2022-12-31T14:58:09.738Z,100501.16
2022-12-31T15:00:26.589Z,100493.53
2022-12-31T15:03:00.349Z,100505.66
2022-12-31T15:05:37.575Z,100493.66
2022-12-31T15:08:35.705Z,100505.72
2022-12-31T15:11:37.833Z,100506.78
2022-12-31T15:14:52.477Z,100508.56
2022-12-31T15:17:39.669Z,100509.00
2022-12-31T15:20:55.079Z,100514.91
2022-12-31T15:23:42.120Z,100511.19
2022-12-31T15:26:31.480Z,100508.50
2022-12-31T15:29:08.891Z,100489.53
2022-12-31T15:31:46.753Z,100485.50
2022-12-31T15:34:37.091Z,100491.22
2022-12-31T15:37:26.333Z,100496.34
2022-12-31T15:40:16.247Z,100492.44
2022-12-31T15:42:56.267Z,100498.56
2022-12-31T15:45:32.625Z,100506.72
2022-12-31T15:48:03.220Z,100522.53
2022-12-31T15:50:30.807Z,100515.44
2022-12-31T15:53:03.959Z,100509.13
2022-12-31T15:55:34.267Z,100500.38
2022-12-31T15:58:17.828Z,100512.84
2022-12-31T16:01:09.116Z,100520.72
2022-12-31T16:03:36.520Z,100521.09
2022-12-31T16:06:11.961Z,100506.97
2022-12-31T16:08:40.561Z,100510.88
2022-12-31T16:11:09.587Z,100523.66
2022-12-31T16:13:42.035Z,100518.78
2022-12-31T16:16:31.451Z,100525.53
2022-12-31T16:19:00.292Z,100534.69
2022-12-31T16:21:36.953Z,100528.28
2022-12-31T16:24:30.970Z,100539.66
2022-12-31T16:27:06.578Z,100549.91
2022-12-31T16:29:37.444Z,100549.31
2022-12-31T16:32:04.773Z,100544.91
2022-12-31T16:34:37.199Z,100550.63
2022-12-31T16:37:16.690Z,100554.50
2022-12-31T16:39:58.216Z,100523.69
2022-12-31T16:42:27.778Z,100538.31
2022-12-31T16:44:57.106Z,100538.84
2022-12-31T16:47:33.127Z,100533.53
2022-12-31T16:50:04.067Z,100554.88
2022-12-31T16:52:37.021Z,100540.97
2022-12-31T16:55:27.113Z,100536.75
2022-12-31T16:58:01.660Z,100534.94
2022-12-31T17:00:28.809Z,100555.03
2022-12-31T17:03:28.483Z,100553.34
2022-12-31T17:06:07.526Z,100547.88
2022-12-31T17:08:45.320Z,100548.00
2022-12-31T17:11:31.190Z,100538.47
2022-12-31T17:14:07.168Z,100550.41
2022-12-31T17:16:36.419Z,100529.88
2022-12-31T17:19:04.087Z,100551.66
2022-12-31T17:21:32.430Z,100552.44
2022-12-31T17:24:06.022Z,100547.28
2022-12-31T17:26:37.812Z,100547.56
2022-12-31T17:29:05.809Z,100551.50
2022-12-31T17:31:40.784Z,100562.47
2022-12-31T17:34:13.413Z,100557.16
2022-12-31T17:36:58.296Z,100564.25
2022-12-31T17:39:26.145Z,100558.22
2022-12-31T17:41:57.733Z,100548.56
2022-12-31T17:44:28.715Z,100555.56
2022-12-31T17:46:55.588Z,100553.47
2022-12-31T17:49:29.749Z,100559.94
2022-12-31T17:51:56.903Z,100551.25
2022-12-31T17:54:23.525Z,100570.31
2022-12-31T17:56:51.678Z,100567.22
2022-12-31T17:59:22.704Z,100569.44
2022-12-31T18:01:49.999Z,100577.91
2022-12-31T18:04:19.061Z,100558.81
2022-12-31T18:06:45.861Z,100562.19
2022-12-31T18:09:12.588Z,100563.31
2022-12-31T18:11:40.920Z,100584.66
2022-12-31T18:14:08.215Z,100581.69
2022-12-31T18:16:34.996Z,100561.31
2022-12-31T18:19:01.958Z,100582.53
2022-12-31T18:21:33.020Z,100587.72
2022-12-31T18:26:29.218Z,100602.63
2022-12-31T18:28:58.622Z,100560.22
2022-12-31T18:31:29.322Z,100591.66
2022-12-31T18:33:58.797Z,100583.38
2022-12-31T18:36:28.708Z,100578.72
2022-12-31T18:38:55.689Z,100587.41
2022-12-31T18:41:27.776Z,100597.38
2022-12-31T18:43:55.356Z,100584.44
2022-12-31T18:46:24.659Z,100600.63
2022-12-31T18:48:51.559Z,100576.09
2022-12-31T18:51:29.303Z,100575.91
2022-12-31T18:53:58.040Z,100591.41
2022-12-31T18:56:25.160Z,100600.94
2022-12-31T18:58:51.983Z,100606.84
2022-12-31T19:01:30.250Z,100612.72
2022-12-31T19:04:01.368Z,100622.31
2022-12-31T19:06:29.334Z,100617.78
2022-12-31T19:08:56.628Z,100600.41
2022-12-31T19:11:23.856Z,100610.97
2022-12-31T19:13:50.870Z,100593.69
2022-12-31T19:16:17.971Z,100619.75
2022-12-31T19:18:46.140Z,100596.69
2022-12-31T19:21:19.199Z,100599.53
2022-12-31T19:23:46.755Z,100609.34
2022-12-31T19:26:22.100Z,100604.84
2022-12-31T19:28:50.618Z,100600.34
2022-12-31T19:31:17.974Z,100602.75
2022-12-31T19:33:45.067Z,100595.47
2022-12-31T19:36:17.899Z,100586.19
2022-12-31T19:38:45.543Z,100597.56
2022-12-31T19:41:18.739Z,100594.03
2022-12-31T19:43:47.031Z,100599.81
2022-12-31T19:46:15.836Z,100584.91
2022-12-31T19:48:43.482Z,100593.50
2022-12-31T19:51:15.963Z,100595.16
2022-12-31T19:53:42.982Z,100606.72
2022-12-31T19:56:16.882Z,100601.88
2022-12-31T19:58:44.390Z,100605.44
2022-12-31T20:01:23.593Z,100608.94
2022-12-31T20:03:51.513Z,100604.16
2022-12-31T20:06:19.582Z,100613.72
2022-12-31T20:08:46.595Z,100603.56
2022-12-31T20:11:17.276Z,100593.75
2022-12-31T20:13:44.681Z,100605.66
2022-12-31T20:16:17.553Z,100624.09
2022-12-31T20:18:46.443Z,100609.56
2022-12-31T20:21:26.552Z,100627.84
2022-12-31T20:23:54.927Z,100611.22
2022-12-31T20:26:23.970Z,100617.72
2022-12-31T20:28:51.116Z,100599.38
2022-12-31T20:31:22.637Z,100605.97
2022-12-31T20:33:49.499Z,100592.53
2022-12-31T20:36:17.633Z,100579.59
2022-12-31T20:38:45.007Z,100592.09
2022-12-31T20:41:20.668Z,100585.75
2022-12-31T20:43:48.376Z,100590.97
2022-12-31T20:46:25.015Z,100601.94
2022-12-31T20:48:55.102Z,100588.44
2022-12-31T20:51:23.406Z,100578.75
2022-12-31T20:53:55.929Z,100592.34
2022-12-31T20:56:24.896Z,100594.47
2022-12-31T20:58:51.876Z,100593.34
2022-12-31T21:01:19.650Z,100604.88
2022-12-31T21:04:05.454Z,100587.47
2022-12-31T21:06:35.182Z,100599.81
2022-12-31T21:09:05.188Z,100599.97
2022-12-31T21:11:51.031Z,100609.09
2022-12-31T21:14:17.992Z,100600.91
2022-12-31T21:16:44.788Z,100624.66
2022-12-31T21:19:11.674Z,100605.72
2022-12-31T21:21:38.603Z,100614.53
2022-12-31T21:24:06.080Z,100641.47
2022-12-31T21:26:32.968Z,100620.00
2022-12-31T21:28:59.793Z,100632.50
2022-12-31T21:31:26.604Z,100615.75
2022-12-31T21:33:53.443Z,100625.53
2022-12-31T21:36:20.217Z,100642.72
2022-12-31T21:38:47.011Z,100637.69
2022-12-31T21:41:35.074Z,100619.69
2022-12-31T21:44:03.471Z,100621.25
2022-12-31T21:46:30.639Z,100618.00
2022-12-31T21:49:00.185Z,100614.06
2022-12-31T21:51:30.420Z,100613.44
2022-12-31T21:53:57.896Z,100595.53
2022-12-31T21:56:24.948Z,100633.38
2022-12-31T21:59:16.550Z,100621.59
2022-12-31T22:02:02.529Z,100640.00
2022-12-31T22:05:01.916Z,100639.25
2022-12-31T22:07:16.391Z,100639.28
2022-12-31T22:09:43.204Z,100622.00
2022-12-31T22:12:09.949Z,100664.56
2022-12-31T22:14:36.750Z,100657.50
2022-12-31T22:17:03.568Z,100672.50
2022-12-31T22:19:30.282Z,100662.97
2022-12-31T22:21:57.040Z,100663.72
2022-12-31T22:24:23.837Z,100690.34
2022-12-31T22:26:52.073Z,100681.09
2022-12-31T22:29:19.721Z,100686.94
2022-12-31T22:31:46.448Z,100690.66
2022-12-31T22:34:13.481Z,100702.63
2022-12-31T22:36:40.611Z,100681.66
2022-12-31T22:39:07.381Z,100696.78
2022-12-31T22:41:34.134Z,100669.31
2022-12-31T22:44:04.040Z,100668.44
2022-12-31T22:46:34.886Z,100687.84
2022-12-31T22:49:04.165Z,100689.56
2022-12-31T22:51:56.078Z,100680.44
2022-12-31T22:54:18.783Z,100696.13
2022-12-31T22:56:45.471Z,100698.00
2022-12-31T22:59:12.243Z,100685.56
2022-12-31T23:01:39.247Z,100688.06
2022-12-31T23:04:06.098Z,100685.50
2022-12-31T23:06:32.961Z,100702.44
2022-12-31T23:09:18.181Z,100700.44
2022-12-31T23:11:44.976Z,100695.44
2022-12-31T23:14:35.879Z,100693.44
2022-12-31T23:17:29.486Z,100681.22
2022-12-31T23:20:18.984Z,100695.38
2022-12-31T23:23:05.664Z,100697.44
2022-12-31T23:25:35.107Z,100698.69
2022-12-31T23:28:01.992Z,100710.22
2022-12-31T23:30:28.885Z,100713.69
2022-12-31T23:32:55.661Z,100700.63
2022-12-31T23:35:22.499Z,100719.50
2022-12-31T23:37:49.312Z,100731.50
2022-12-31T23:40:21.120Z,100726.28
2022-12-31T23:42:50.058Z,100713.28
2022-12-31T23:45:17.087Z,100712.19
2022-12-31T23:47:43.876Z,100732.41
2022-12-31T23:50:10.586Z,100725.94
2022-12-31T23:52:37.424Z,100724.84
2022-12-31T23:55:04.658Z,100732.13
2022-12-31T23:57:31.392Z,100740.25
2022-12-31T23:59:58.237Z,100723.25
